sensor_id;sensor_type;location;lat;lon;timestamp;temperature;humidity
17813;DHT22;9030;50.792;8.320;2023-05-07T00:00:19;12.20;99.90
17813;DHT22;9030;50.792;8.320;2023-05-07T00:02:45;12.20;99.90
17813;DHT22;9030;50.792;8.320;2023-05-07T00:05:12;12.20;99.90
17813;DHT22;9030;50.792;8.320;2023-05-07T00:07:39;12.30;99.90
17813;DHT22;9030;50.792;8.320;2023-05-07T00:10:07;12.30;99.90
17813;DHT22;9030;50.792;8.320;2023-05-07T00:12:34;12.30;99.90
17813;DHT22;9030;50.792;8.320;2023-05-07T00:15:01;12.30;99.90
17813;DHT22;9030;50.792;8.320;2023-05-07T00:17:29;12.20;99.90
17813;DHT22;9030;50.792;8.320;2023-05-07T00:19:56;12.10;99.90
17813;DHT22;9030;50.792;8.320;2023-05-07T00:22:23;12.10;99.90
17813;DHT22;9030;50.792;8.320;2023-05-07T00:24:49;12.10;99.90
17813;DHT22;9030;50.792;8.320;2023-05-07T00:27:16;12.00;99.90
17813;DHT22;9030;50.792;8.320;2023-05-07T00:29:43;12.00;99.90
17813;DHT22;9030;50.792;8.320;2023-05-07T00:32:10;12.00;99.90
17813;DHT22;9030;50.792;8.320;2023-05-07T00:34:38;12.00;99.90
17813;DHT22;9030;50.792;8.320;2023-05-07T00:37:05;12.00;99.90
17813;DHT22;9030;50.792;8.320;2023-05-07T00:39:32;12.00;99.90
17813;DHT22;9030;50.792;8.320;2023-05-07T00:41:59;12.00;99.90
17813;DHT22;9030;50.792;8.320;2023-05-07T00:44:26;11.90;99.90
17813;DHT22;9030;50.792;8.320;2023-05-07T00:46:54;12.00;99.90
17813;DHT22;9030;50.792;8.320;2023-05-07T00:49:21;11.90;99.90
17813;DHT22;9030;50.792;8.320;2023-05-07T00:51:49;11.90;99.90
17813;DHT22;9030;50.792;8.320;2023-05-07T00:54:16;11.90;99.90
17813;DHT22;9030;50.792;8.320;2023-05-07T00:56:44;11.90;99.90
17813;DHT22;9030;50.792;8.320;2023-05-07T00:59:11;11.90;99.90
17813;DHT22;9030;50.792;8.320;2023-05-07T01:01:37;11.90;99.90
17813;DHT22;9030;50.792;8.320;2023-05-07T01:04:04;11.90;99.90
17813;DHT22;9030;50.792;8.320;2023-05-07T01:06:31;11.90;99.90
17813;DHT22;9030;50.792;8.320;2023-05-07T01:09:00;12.00;99.90
17813;DHT22;9030;50.792;8.320;2023-05-07T01:11:27;12.00;99.90
17813;DHT22;9030;50.792;8.320;2023-05-07T01:13:54;12.00;99.90
17813;DHT22;9030;50.792;8.320;2023-05-07T01:16:21;11.90;99.90
17813;DHT22;9030;50.792;8.320;2023-05-07T01:18:48;11.90;99.90
17813;DHT22;9030;50.792;8.320;2023-05-07T01:21:15;11.90;99.90
17813;DHT22;9030;50.792;8.320;2023-05-07T01:23:44;11.90;99.90
17813;DHT22;9030;50.792;8.320;2023-05-07T01:26:11;11.90;99.90
17813;DHT22;9030;50.792;8.320;2023-05-07T01:28:38;11.90;99.90
17813;DHT22;9030;50.792;8.320;2023-05-07T01:31:05;11.90;99.90
17813;DHT22;9030;50.792;8.320;2023-05-07T01:33:34;11.90;99.90
17813;DHT22;9030;50.792;8.320;2023-05-07T01:36:01;11.90;99.90
17813;DHT22;9030;50.792;8.320;2023-05-07T01:38:31;12.00;99.90
17813;DHT22;9030;50.792;8.320;2023-05-07T01:41:00;12.00;99.90
17813;DHT22;9030;50.792;8.320;2023-05-07T01:43:28;11.90;99.90
17813;DHT22;9030;50.792;8.320;2023-05-07T01:45:55;11.90;99.90
17813;DHT22;9030;50.792;8.320;2023-05-07T01:48:24;11.90;99.90
17813;DHT22;9030;50.792;8.320;2023-05-07T01:50:51;11.90;99.90
17813;DHT22;9030;50.792;8.320;2023-05-07T01:53:18;11.90;99.90
17813;DHT22;9030;50.792;8.320;2023-05-07T01:55:45;11.90;99.90
17813;DHT22;9030;50.792;8.320;2023-05-07T01:58:13;11.90;99.90
17813;DHT22;9030;50.792;8.320;2023-05-07T02:00:40;11.90;99.90
17813;DHT22;9030;50.792;8.320;2023-05-07T02:03:07;11.90;99.90
17813;DHT22;9030;50.792;8.320;2023-05-07T02:05:33;11.90;99.90
17813;DHT22;9030;50.792;8.320;2023-05-07T02:08:00;11.80;99.90
17813;DHT22;9030;50.792;8.320;2023-05-07T02:10:27;11.90;99.90
17813;DHT22;9030;50.792;8.320;2023-05-07T02:12:54;11.80;99.90
17813;DHT22;9030;50.792;8.320;2023-05-07T02:15:22;11.80;99.90
17813;DHT22;9030;50.792;8.320;2023-05-07T02:17:59;11.90;99.90
17813;DHT22;9030;50.792;8.320;2023-05-07T02:20:26;11.80;99.90
17813;DHT22;9030;50.792;8.320;2023-05-07T02:22:53;11.90;99.90
17813;DHT22;9030;50.792;8.320;2023-05-07T02:25:19;11.80;99.90
17813;DHT22;9030;50.792;8.320;2023-05-07T02:27:46;11.80;99.90
17813;DHT22;9030;50.792;8.320;2023-05-07T02:30:14;11.80;99.90
17813;DHT22;9030;50.792;8.320;2023-05-07T02:32:42;11.70;99.90
17813;DHT22;9030;50.792;8.320;2023-05-07T02:35:09;11.70;99.90
17813;DHT22;9030;50.792;8.320;2023-05-07T02:37:35;11.70;99.90
17813;DHT22;9030;50.792;8.320;2023-05-07T02:40:03;11.70;99.90
17813;DHT22;9030;50.792;8.320;2023-05-07T02:42:30;11.70;99.90
17813;DHT22;9030;50.792;8.320;2023-05-07T02:44:56;11.70;99.90
17813;DHT22;9030;50.792;8.320;2023-05-07T02:47:23;11.80;99.90
17813;DHT22;9030;50.792;8.320;2023-05-07T02:49:53;11.80;99.90
17813;DHT22;9030;50.792;8.320;2023-05-07T02:52:20;11.80;99.90
17813;DHT22;9030;50.792;8.320;2023-05-07T02:54:47;11.80;99.90
17813;DHT22;9030;50.792;8.320;2023-05-07T02:57:13;11.80;99.90
17813;DHT22;9030;50.792;8.320;2023-05-07T02:59:41;11.70;99.90
17813;DHT22;9030;50.792;8.320;2023-05-07T03:02:08;11.70;99.90
17813;DHT22;9030;50.792;8.320;2023-05-07T03:04:36;11.70;99.90
17813;DHT22;9030;50.792;8.320;2023-05-07T03:07:04;11.60;99.90
17813;DHT22;9030;50.792;8.320;2023-05-07T03:09:31;11.60;99.90
17813;DHT22;9030;50.792;8.320;2023-05-07T03:11:57;11.60;99.90
17813;DHT22;9030;50.792;8.320;2023-05-07T03:14:24;11.60;99.90
17813;DHT22;9030;50.792;8.320;2023-05-07T03:16:51;11.50;99.90
17813;DHT22;9030;50.792;8.320;2023-05-07T03:19:17;11.50;99.90
17813;DHT22;9030;50.792;8.320;2023-05-07T03:21:44;11.50;99.90
17813;DHT22;9030;50.792;8.320;2023-05-07T03:24:12;11.50;99.90
17813;DHT22;9030;50.792;8.320;2023-05-07T03:26:39;11.60;99.90
17813;DHT22;9030;50.792;8.320;2023-05-07T03:29:05;11.60;99.90
17813;DHT22;9030;50.792;8.320;2023-05-07T03:31:32;11.60;99.90
17813;DHT22;9030;50.792;8.320;2023-05-07T03:33:59;11.70;99.90
17813;DHT22;9030;50.792;8.320;2023-05-07T03:36:26;11.70;99.90
17813;DHT22;9030;50.792;8.320;2023-05-07T03:38:53;11.70;99.90
17813;DHT22;9030;50.792;8.320;2023-05-07T03:41:21;11.70;99.90
17813;DHT22;9030;50.792;8.320;2023-05-07T03:43:48;11.70;99.90
17813;DHT22;9030;50.792;8.320;2023-05-07T03:46:14;11.70;99.90
17813;DHT22;9030;50.792;8.320;2023-05-07T03:48:41;11.70;99.90
17813;DHT22;9030;50.792;8.320;2023-05-07T03:51:08;11.70;99.90
17813;DHT22;9030;50.792;8.320;2023-05-07T03:53:34;11.80;99.90
17813;DHT22;9030;50.792;8.320;2023-05-07T03:56:01;11.90;99.90
17813;DHT22;9030;50.792;8.320;2023-05-07T03:58:29;11.90;99.90
17813;DHT22;9030;50.792;8.320;2023-05-07T04:00:57;11.90;99.90
17813;DHT22;9030;50.792;8.320;2023-05-07T04:03:24;11.80;99.90
17813;DHT22;9030;50.792;8.320;2023-05-07T04:05:51;11.80;99.90
17813;DHT22;9030;50.792;8.320;2023-05-07T04:08:17;11.80;99.90
17813;DHT22;9030;50.792;8.320;2023-05-07T04:10:44;11.70;99.90
17813;DHT22;9030;50.792;8.320;2023-05-07T04:13:11;11.80;99.90
17813;DHT22;9030;50.792;8.320;2023-05-07T04:15:39;11.90;99.90
17813;DHT22;9030;50.792;8.320;2023-05-07T04:18:06;12.00;99.90
17813;DHT22;9030;50.792;8.320;2023-05-07T04:20:34;12.00;99.90
17813;DHT22;9030;50.792;8.320;2023-05-07T04:23:01;12.10;99.90
17813;DHT22;9030;50.792;8.320;2023-05-07T04:25:28;12.20;99.90
17813;DHT22;9030;50.792;8.320;2023-05-07T04:27:55;12.20;99.90
17813;DHT22;9030;50.792;8.320;2023-05-07T04:30:22;12.20;99.90
17813;DHT22;9030;50.792;8.320;2023-05-07T04:32:50;12.30;99.90
17813;DHT22;9030;50.792;8.320;2023-05-07T04:35:17;12.30;99.90
17813;DHT22;9030;50.792;8.320;2023-05-07T04:37:43;12.30;99.90
17813;DHT22;9030;50.792;8.320;2023-05-07T04:40:10;12.30;99.90
17813;DHT22;9030;50.792;8.320;2023-05-07T04:42:37;12.30;99.90
17813;DHT22;9030;50.792;8.320;2023-05-07T04:45:05;12.30;99.90
17813;DHT22;9030;50.792;8.320;2023-05-07T04:47:32;12.30;99.90
17813;DHT22;9030;50.792;8.320;2023-05-07T04:50:00;12.30;99.90
17813;DHT22;9030;50.792;8.320;2023-05-07T04:52:27;12.30;99.90
17813;DHT22;9030;50.792;8.320;2023-05-07T04:54:53;12.30;99.90
17813;DHT22;9030;50.792;8.320;2023-05-07T04:57:20;12.30;99.90
17813;DHT22;9030;50.792;8.320;2023-05-07T04:59:47;12.40;99.90
17813;DHT22;9030;50.792;8.320;2023-05-07T05:02:14;12.40;99.90
17813;DHT22;9030;50.792;8.320;2023-05-07T05:04:40;12.40;99.90
17813;DHT22;9030;50.792;8.320;2023-05-07T05:07:09;12.50;99.90
17813;DHT22;9030;50.792;8.320;2023-05-07T05:09:35;12.50;99.90
17813;DHT22;9030;50.792;8.320;2023-05-07T05:12:03;12.60;99.90
17813;DHT22;9030;50.792;8.320;2023-05-07T05:14:32;12.60;99.90
17813;DHT22;9030;50.792;8.320;2023-05-07T05:16:59;12.70;99.90
17813;DHT22;9030;50.792;8.320;2023-05-07T05:19:26;12.70;99.90
17813;DHT22;9030;50.792;8.320;2023-05-07T05:21:52;12.80;99.90
17813;DHT22;9030;50.792;8.320;2023-05-07T05:24:20;12.80;99.90
17813;DHT22;9030;50.792;8.320;2023-05-07T05:26:47;12.90;99.90
17813;DHT22;9030;50.792;8.320;2023-05-07T05:29:13;12.90;99.90
17813;DHT22;9030;50.792;8.320;2023-05-07T05:31:40;13.00;99.90
17813;DHT22;9030;50.792;8.320;2023-05-07T05:34:07;13.00;99.90
17813;DHT22;9030;50.792;8.320;2023-05-07T05:36:34;13.00;99.90
17813;DHT22;9030;50.792;8.320;2023-05-07T05:39:01;13.10;99.90
17813;DHT22;9030;50.792;8.320;2023-05-07T05:41:29;13.20;99.90
17813;DHT22;9030;50.792;8.320;2023-05-07T05:43:56;13.20;99.90
17813;DHT22;9030;50.792;8.320;2023-05-07T05:46:22;13.20;99.90
17813;DHT22;9030;50.792;8.320;2023-05-07T05:48:49;13.30;99.90
17813;DHT22;9030;50.792;8.320;2023-05-07T05:51:16;13.30;99.90
17813;DHT22;9030;50.792;8.320;2023-05-07T05:53:42;13.30;99.90
17813;DHT22;9030;50.792;8.320;2023-05-07T05:56:09;13.40;99.90
17813;DHT22;9030;50.792;8.320;2023-05-07T05:58:37;13.60;99.90
17813;DHT22;9030;50.792;8.320;2023-05-07T06:01:04;13.70;99.90
17813;DHT22;9030;50.792;8.320;2023-05-07T06:03:31;13.80;99.90
17813;DHT22;9030;50.792;8.320;2023-05-07T06:05:58;13.90;99.90
17813;DHT22;9030;50.792;8.320;2023-05-07T06:08:28;13.80;99.90
17813;DHT22;9030;50.792;8.320;2023-05-07T06:10:55;13.90;99.90
17813;DHT22;9030;50.792;8.320;2023-05-07T06:13:22;13.90;99.90
17813;DHT22;9030;50.792;8.320;2023-05-07T06:15:50;14.00;99.90
17813;DHT22;9030;50.792;8.320;2023-05-07T06:18:17;13.90;99.90
17813;DHT22;9030;50.792;8.320;2023-05-07T06:20:44;14.00;99.90
17813;DHT22;9030;50.792;8.320;2023-05-07T06:23:10;13.90;99.90
17813;DHT22;9030;50.792;8.320;2023-05-07T06:25:37;14.20;99.90
17813;DHT22;9030;50.792;8.320;2023-05-07T06:28:04;14.20;99.90
17813;DHT22;9030;50.792;8.320;2023-05-07T06:30:30;14.20;99.90
17813;DHT22;9030;50.792;8.320;2023-05-07T06:32:58;14.00;99.90
17813;DHT22;9030;50.792;8.320;2023-05-07T06:35:25;14.00;99.90
17813;DHT22;9030;50.792;8.320;2023-05-07T06:37:52;14.30;99.90
17813;DHT22;9030;50.792;8.320;2023-05-07T06:40:18;14.80;99.90
17813;DHT22;9030;50.792;8.320;2023-05-07T06:42:45;15.30;99.90
17813;DHT22;9030;50.792;8.320;2023-05-07T06:45:12;15.60;99.90
17813;DHT22;9030;50.792;8.320;2023-05-07T06:47:39;15.40;99.90
17813;DHT22;9030;50.792;8.320;2023-05-07T06:50:08;15.30;99.90
17813;DHT22;9030;50.792;8.320;2023-05-07T06:52:35;14.90;99.90
17813;DHT22;9030;50.792;8.320;2023-05-07T06:55:02;14.70;99.90
17813;DHT22;9030;50.792;8.320;2023-05-07T06:57:28;14.80;99.90
17813;DHT22;9030;50.792;8.320;2023-05-07T06:59:55;14.80;99.90
17813;DHT22;9030;50.792;8.320;2023-05-07T07:02:22;14.80;99.90
17813;DHT22;9030;50.792;8.320;2023-05-07T07:04:48;15.10;99.90
17813;DHT22;9030;50.792;8.320;2023-05-07T07:07:17;15.40;99.90
17813;DHT22;9030;50.792;8.320;2023-05-07T07:09:43;15.50;99.90
17813;DHT22;9030;50.792;8.320;2023-05-07T07:12:10;15.30;99.90
17813;DHT22;9030;50.792;8.320;2023-05-07T07:14:37;15.30;99.90
17813;DHT22;9030;50.792;8.320;2023-05-07T07:17:03;15.30;99.90
17813;DHT22;9030;50.792;8.320;2023-05-07T07:19:31;15.50;99.90
17813;DHT22;9030;50.792;8.320;2023-05-07T07:21:57;15.70;99.90
17813;DHT22;9030;50.792;8.320;2023-05-07T07:24:26;16.10;99.90
17813;DHT22;9030;50.792;8.320;2023-05-07T07:26:52;16.30;99.90
17813;DHT22;9030;50.792;8.320;2023-05-07T07:29:20;16.30;99.90
17813;DHT22;9030;50.792;8.320;2023-05-07T07:31:48;16.00;99.90
17813;DHT22;9030;50.792;8.320;2023-05-07T07:34:15;16.00;99.90
17813;DHT22;9030;50.792;8.320;2023-05-07T07:36:42;16.10;99.90
17813;DHT22;9030;50.792;8.320;2023-05-07T07:39:08;16.10;99.90
17813;DHT22;9030;50.792;8.320;2023-05-07T07:41:37;15.90;99.90
17813;DHT22;9030;50.792;8.320;2023-05-07T07:44:04;16.10;99.90
17813;DHT22;9030;50.792;8.320;2023-05-07T07:46:32;16.10;99.90
17813;DHT22;9030;50.792;8.320;2023-05-07T07:49:00;16.20;99.90
17813;DHT22;9030;50.792;8.320;2023-05-07T07:51:26;16.40;99.90
17813;DHT22;9030;50.792;8.320;2023-05-07T07:53:53;16.50;99.90
17813;DHT22;9030;50.792;8.320;2023-05-07T07:56:20;16.60;99.90
17813;DHT22;9030;50.792;8.320;2023-05-07T07:58:49;16.60;99.90
17813;DHT22;9030;50.792;8.320;2023-05-07T08:01:15;16.30;99.90
17813;DHT22;9030;50.792;8.320;2023-05-07T08:03:42;16.70;99.90
17813;DHT22;9030;50.792;8.320;2023-05-07T08:06:09;16.90;99.90
17813;DHT22;9030;50.792;8.320;2023-05-07T08:08:35;16.50;99.90
17813;DHT22;9030;50.792;8.320;2023-05-07T08:11:02;16.40;99.90
17813;DHT22;9030;50.792;8.320;2023-05-07T08:13:29;17.10;99.90
17813;DHT22;9030;50.792;8.320;2023-05-07T08:15:57;17.40;99.90
17813;DHT22;9030;50.792;8.320;2023-05-07T08:18:25;17.50;99.90
17813;DHT22;9030;50.792;8.320;2023-05-07T08:20:53;17.10;99.90
17813;DHT22;9030;50.792;8.320;2023-05-07T08:23:20;17.40;99.90
17813;DHT22;9030;50.792;8.320;2023-05-07T08:25:47;17.50;99.90
17813;DHT22;9030;50.792;8.320;2023-05-07T08:28:14;17.70;99.90
17813;DHT22;9030;50.792;8.320;2023-05-07T08:30:41;17.80;99.90
17813;DHT22;9030;50.792;8.320;2023-05-07T08:33:09;17.90;99.90
17813;DHT22;9030;50.792;8.320;2023-05-07T08:35:36;17.40;99.90
17813;DHT22;9030;50.792;8.320;2023-05-07T08:38:03;17.10;99.90
17813;DHT22;9030;50.792;8.320;2023-05-07T08:40:36;16.80;99.90
17813;DHT22;9030;50.792;8.320;2023-05-07T08:43:05;17.00;99.90
17813;DHT22;9030;50.792;8.320;2023-05-07T08:45:33;17.20;99.90
17813;DHT22;9030;50.792;8.320;2023-05-07T08:48:02;17.40;99.90
17813;DHT22;9030;50.792;8.320;2023-05-07T08:50:31;17.20;99.90
17813;DHT22;9030;50.792;8.320;2023-05-07T08:52:57;17.20;99.90
17813;DHT22;9030;50.792;8.320;2023-05-07T08:55:25;17.10;99.90
17813;DHT22;9030;50.792;8.320;2023-05-07T08:57:52;16.90;99.90
17813;DHT22;9030;50.792;8.320;2023-05-07T09:00:19;17.00;99.90
17813;DHT22;9030;50.792;8.320;2023-05-07T09:02:46;17.00;99.90
17813;DHT22;9030;50.792;8.320;2023-05-07T09:05:12;16.70;99.90
17813;DHT22;9030;50.792;8.320;2023-05-07T09:07:41;16.80;99.90
17813;DHT22;9030;50.792;8.320;2023-05-07T09:10:08;17.10;99.90
17813;DHT22;9030;50.792;8.320;2023-05-07T09:12:35;17.40;99.90
17813;DHT22;9030;50.792;8.320;2023-05-07T09:15:02;17.30;99.90
17813;DHT22;9030;50.792;8.320;2023-05-07T09:17:29;17.20;99.90
17813;DHT22;9030;50.792;8.320;2023-05-07T09:19:56;17.10;99.90
17813;DHT22;9030;50.792;8.320;2023-05-07T09:22:22;16.90;99.90
17813;DHT22;9030;50.792;8.320;2023-05-07T09:24:52;17.00;99.90
17813;DHT22;9030;50.792;8.320;2023-05-07T09:27:19;17.00;99.90
17813;DHT22;9030;50.792;8.320;2023-05-07T09:29:45;16.90;99.90
17813;DHT22;9030;50.792;8.320;2023-05-07T09:32:12;16.90;99.90
17813;DHT22;9030;50.792;8.320;2023-05-07T09:34:41;17.00;99.90
17813;DHT22;9030;50.792;8.320;2023-05-07T09:37:08;17.20;99.90
17813;DHT22;9030;50.792;8.320;2023-05-07T09:39:42;17.30;99.90
17813;DHT22;9030;50.792;8.320;2023-05-07T09:42:11;17.40;99.90
17813;DHT22;9030;50.792;8.320;2023-05-07T09:44:40;17.60;99.90
17813;DHT22;9030;50.792;8.320;2023-05-07T09:47:07;17.50;99.90
17813;DHT22;9030;50.792;8.320;2023-05-07T09:49:36;17.80;99.90
17813;DHT22;9030;50.792;8.320;2023-05-07T09:52:04;17.90;99.90
17813;DHT22;9030;50.792;8.320;2023-05-07T09:54:35;18.10;99.90
17813;DHT22;9030;50.792;8.320;2023-05-07T09:57:03;18.00;99.90
17813;DHT22;9030;50.792;8.320;2023-05-07T09:59:33;18.20;99.90
17813;DHT22;9030;50.792;8.320;2023-05-07T10:02:01;18.20;99.90
17813;DHT22;9030;50.792;8.320;2023-05-07T10:04:29;18.10;99.90
17813;DHT22;9030;50.792;8.320;2023-05-07T10:06:57;18.10;99.90
17813;DHT22;9030;50.792;8.320;2023-05-07T10:09:25;18.00;99.90
17813;DHT22;9030;50.792;8.320;2023-05-07T10:11:52;17.90;99.90
17813;DHT22;9030;50.792;8.320;2023-05-07T10:14:21;18.20;99.90
17813;DHT22;9030;50.792;8.320;2023-05-07T10:16:49;18.60;99.90
17813;DHT22;9030;50.792;8.320;2023-05-07T10:19:16;18.90;99.90
17813;DHT22;9030;50.792;8.320;2023-05-07T10:21:48;19.20;99.90
17813;DHT22;9030;50.792;8.320;2023-05-07T10:24:20;19.60;99.90
17813;DHT22;9030;50.792;8.320;2023-05-07T10:26:50;19.90;99.90
17813;DHT22;9030;50.792;8.320;2023-05-07T10:29:25;20.10;99.90
17813;DHT22;9030;50.792;8.320;2023-05-07T10:31:59;19.20;99.90
17813;DHT22;9030;50.792;8.320;2023-05-07T10:34:34;19.50;99.90
17813;DHT22;9030;50.792;8.320;2023-05-07T10:37:02;19.20;99.90
17813;DHT22;9030;50.792;8.320;2023-05-07T10:39:29;19.30;99.90
17813;DHT22;9030;50.792;8.320;2023-05-07T10:41:57;19.30;99.90
17813;DHT22;9030;50.792;8.320;2023-05-07T10:44:33;19.70;99.90
17813;DHT22;9030;50.792;8.320;2023-05-07T10:47:06;20.50;99.90
17813;DHT22;9030;50.792;8.320;2023-05-07T10:49:35;20.30;99.90
17813;DHT22;9030;50.792;8.320;2023-05-07T10:52:12;19.60;99.90
17813;DHT22;9030;50.792;8.320;2023-05-07T10:54:39;19.40;99.90
17813;DHT22;9030;50.792;8.320;2023-05-07T10:57:34;19.70;99.90
17813;DHT22;9030;50.792;8.320;2023-05-07T11:00:43;19.20;99.90
17813;DHT22;9030;50.792;8.320;2023-05-07T11:03:11;19.20;99.90
17813;DHT22;9030;50.792;8.320;2023-05-07T11:05:40;19.20;99.90
17813;DHT22;9030;50.792;8.320;2023-05-07T11:08:08;19.20;99.90
17813;DHT22;9030;50.792;8.320;2023-05-07T11:10:52;19.50;99.90
17813;DHT22;9030;50.792;8.320;2023-05-07T11:13:42;20.20;99.90
17813;DHT22;9030;50.792;8.320;2023-05-07T11:16:21;21.00;99.90
17813;DHT22;9030;50.792;8.320;2023-05-07T11:18:49;21.30;99.90
17813;DHT22;9030;50.792;8.320;2023-05-07T11:21:33;21.00;99.90
17813;DHT22;9030;50.792;8.320;2023-05-07T11:24:01;21.30;99.90
17813;DHT22;9030;50.792;8.320;2023-05-07T11:26:29;21.30;99.90
17813;DHT22;9030;50.792;8.320;2023-05-07T11:28:57;21.30;99.90
17813;DHT22;9030;50.792;8.320;2023-05-07T11:31:27;21.40;99.90
17813;DHT22;9030;50.792;8.320;2023-05-07T11:33:55;21.30;99.90
17813;DHT22;9030;50.792;8.320;2023-05-07T11:36:23;21.60;99.90
17813;DHT22;9030;50.792;8.320;2023-05-07T11:38:50;21.60;99.90
17813;DHT22;9030;50.792;8.320;2023-05-07T11:41:17;20.80;99.90
17813;DHT22;9030;50.792;8.320;2023-05-07T11:43:58;21.70;99.90
17813;DHT22;9030;50.792;8.320;2023-05-07T11:46:28;21.90;99.90
17813;DHT22;9030;50.792;8.320;2023-05-07T11:48:56;21.60;99.90
17813;DHT22;9030;50.792;8.320;2023-05-07T11:51:24;21.60;99.90
17813;DHT22;9030;50.792;8.320;2023-05-07T11:53:52;22.10;99.90
17813;DHT22;9030;50.792;8.320;2023-05-07T11:56:20;22.10;99.90
17813;DHT22;9030;50.792;8.320;2023-05-07T11:58:47;22.20;99.90
17813;DHT22;9030;50.792;8.320;2023-05-07T12:01:15;22.60;99.90
17813;DHT22;9030;50.792;8.320;2023-05-07T12:03:45;21.70;99.90
17813;DHT22;9030;50.792;8.320;2023-05-07T12:06:14;21.50;99.90
17813;DHT22;9030;50.792;8.320;2023-05-07T12:08:42;21.40;99.90
17813;DHT22;9030;50.792;8.320;2023-05-07T12:11:10;21.40;99.90
17813;DHT22;9030;50.792;8.320;2023-05-07T12:13:38;21.70;99.90
17813;DHT22;9030;50.792;8.320;2023-05-07T12:16:06;22.20;99.90
17813;DHT22;9030;50.792;8.320;2023-05-07T12:18:34;22.50;99.90
17813;DHT22;9030;50.792;8.320;2023-05-07T12:21:04;22.80;99.90
17813;DHT22;9030;50.792;8.320;2023-05-07T12:23:31;22.60;99.90
17813;DHT22;9030;50.792;8.320;2023-05-07T12:25:59;22.40;99.90
17813;DHT22;9030;50.792;8.320;2023-05-07T12:28:26;22.40;99.90
17813;DHT22;9030;50.792;8.320;2023-05-07T12:30:53;22.50;99.90
17813;DHT22;9030;50.792;8.320;2023-05-07T12:33:24;22.50;99.90
17813;DHT22;9030;50.792;8.320;2023-05-07T12:35:53;23.40;99.90
17813;DHT22;9030;50.792;8.320;2023-05-07T12:38:22;23.10;99.90
17813;DHT22;9030;50.792;8.320;2023-05-07T12:40:50;22.10;99.90
17813;DHT22;9030;50.792;8.320;2023-05-07T12:43:17;21.40;99.90
17813;DHT22;9030;50.792;8.320;2023-05-07T12:45:44;21.70;99.90
17813;DHT22;9030;50.792;8.320;2023-05-07T12:48:12;21.90;99.90
17813;DHT22;9030;50.792;8.320;2023-05-07T12:50:39;22.20;99.90
17813;DHT22;9030;50.792;8.320;2023-05-07T12:53:06;22.40;99.90
17813;DHT22;9030;50.792;8.320;2023-05-07T12:55:45;22.10;99.90
17813;DHT22;9030;50.792;8.320;2023-05-07T12:58:16;22.20;99.90
17813;DHT22;9030;50.792;8.320;2023-05-07T13:00:43;22.40;99.90
17813;DHT22;9030;50.792;8.320;2023-05-07T13:03:10;21.60;99.90
17813;DHT22;9030;50.792;8.320;2023-05-07T13:05:37;22.10;99.90
17813;DHT22;9030;50.792;8.320;2023-05-07T13:08:04;22.40;99.90
17813;DHT22;9030;50.792;8.320;2023-05-07T13:10:31;22.50;99.90
17813;DHT22;9030;50.792;8.320;2023-05-07T13:13:00;22.00;99.90
17813;DHT22;9030;50.792;8.320;2023-05-07T13:15:27;21.90;99.90
17813;DHT22;9030;50.792;8.320;2023-05-07T13:17:54;22.10;99.90
17813;DHT22;9030;50.792;8.320;2023-05-07T13:20:21;21.90;99.90
17813;DHT22;9030;50.792;8.320;2023-05-07T13:22:47;21.90;99.90
17813;DHT22;9030;50.792;8.320;2023-05-07T13:25:15;21.60;99.90
17813;DHT22;9030;50.792;8.320;2023-05-07T13:27:42;21.50;99.90
17813;DHT22;9030;50.792;8.320;2023-05-07T13:30:10;21.70;99.90
17813;DHT22;9030;50.792;8.320;2023-05-07T13:32:37;21.90;99.90
17813;DHT22;9030;50.792;8.320;2023-05-07T13:35:04;21.50;99.90
17813;DHT22;9030;50.792;8.320;2023-05-07T13:37:31;21.40;99.90
17813;DHT22;9030;50.792;8.320;2023-05-07T13:39:58;21.20;99.90
17813;DHT22;9030;50.792;8.320;2023-05-07T13:42:25;21.00;99.90
17813;DHT22;9030;50.792;8.320;2023-05-07T13:44:51;21.10;99.90
17813;DHT22;9030;50.792;8.320;2023-05-07T13:47:19;21.10;99.90
17813;DHT22;9030;50.792;8.320;2023-05-07T13:49:46;21.40;99.90
17813;DHT22;9030;50.792;8.320;2023-05-07T13:52:14;21.70;99.90
17813;DHT22;9030;50.792;8.320;2023-05-07T13:54:41;22.00;99.90
17813;DHT22;9030;50.792;8.320;2023-05-07T13:57:08;22.40;99.90
17813;DHT22;9030;50.792;8.320;2023-05-07T13:59:35;22.10;99.90
17813;DHT22;9030;50.792;8.320;2023-05-07T14:02:01;21.80;99.90
17813;DHT22;9030;50.792;8.320;2023-05-07T14:04:30;21.60;99.90
17813;DHT22;9030;50.792;8.320;2023-05-07T14:06:57;21.60;99.90
17813;DHT22;9030;50.792;8.320;2023-05-07T14:09:24;21.50;99.90
17813;DHT22;9030;50.792;8.320;2023-05-07T14:11:51;21.30;99.90
17813;DHT22;9030;50.792;8.320;2023-05-07T14:14:18;21.20;99.90
17813;DHT22;9030;50.792;8.320;2023-05-07T14:16:45;21.20;99.90
17813;DHT22;9030;50.792;8.320;2023-05-07T14:19:11;21.30;99.90
17813;DHT22;9030;50.792;8.320;2023-05-07T14:21:40;21.20;99.90
17813;DHT22;9030;50.792;8.320;2023-05-07T14:24:07;21.20;99.90
17813;DHT22;9030;50.792;8.320;2023-05-07T14:26:34;21.10;99.90
17813;DHT22;9030;50.792;8.320;2023-05-07T14:29:01;21.10;99.90
17813;DHT22;9030;50.792;8.320;2023-05-07T14:31:28;21.10;99.90
17813;DHT22;9030;50.792;8.320;2023-05-07T14:33:55;21.20;99.90
17813;DHT22;9030;50.792;8.320;2023-05-07T14:36:23;21.30;99.90
17813;DHT22;9030;50.792;8.320;2023-05-07T14:38:52;21.40;99.90
17813;DHT22;9030;50.792;8.320;2023-05-07T14:41:20;21.40;99.90
17813;DHT22;9030;50.792;8.320;2023-05-07T14:43:47;21.50;99.90
17813;DHT22;9030;50.792;8.320;2023-05-07T14:46:15;21.40;99.90
17813;DHT22;9030;50.792;8.320;2023-05-07T14:48:43;21.40;99.90
17813;DHT22;9030;50.792;8.320;2023-05-07T14:51:10;21.40;99.90
17813;DHT22;9030;50.792;8.320;2023-05-07T14:53:37;21.30;99.90
17813;DHT22;9030;50.792;8.320;2023-05-07T14:56:06;21.30;99.90
17813;DHT22;9030;50.792;8.320;2023-05-07T14:58:33;21.30;99.90
17813;DHT22;9030;50.792;8.320;2023-05-07T15:00:59;21.30;99.90
17813;DHT22;9030;50.792;8.320;2023-05-07T15:03:27;21.20;99.90
17813;DHT22;9030;50.792;8.320;2023-05-07T15:05:54;21.00;99.90
17813;DHT22;9030;50.792;8.320;2023-05-07T15:08:21;21.00;99.90
17813;DHT22;9030;50.792;8.320;2023-05-07T15:10:48;20.90;99.90
17813;DHT22;9030;50.792;8.320;2023-05-07T15:13:18;20.70;99.90
17813;DHT22;9030;50.792;8.320;2023-05-07T15:15:45;20.70;99.90
17813;DHT22;9030;50.792;8.320;2023-05-07T15:18:12;20.60;99.90
17813;DHT22;9030;50.792;8.320;2023-05-07T15:20:39;20.60;99.90
17813;DHT22;9030;50.792;8.320;2023-05-07T15:23:06;20.50;99.90
17813;DHT22;9030;50.792;8.320;2023-05-07T15:25:35;20.60;99.90
17813;DHT22;9030;50.792;8.320;2023-05-07T15:28:02;20.50;99.90
17813;DHT22;9030;50.792;8.320;2023-05-07T15:30:31;20.40;99.90
17813;DHT22;9030;50.792;8.320;2023-05-07T15:32:57;20.30;99.90
17813;DHT22;9030;50.792;8.320;2023-05-07T15:35:25;20.40;99.90
17813;DHT22;9030;50.792;8.320;2023-05-07T15:37:51;20.30;99.90
17813;DHT22;9030;50.792;8.320;2023-05-07T15:40:18;20.30;99.90
17813;DHT22;9030;50.792;8.320;2023-05-07T15:42:46;20.20;99.90
17813;DHT22;9030;50.792;8.320;2023-05-07T15:45:13;20.20;99.90
17813;DHT22;9030;50.792;8.320;2023-05-07T15:47:41;20.10;99.90